sensor_id;sensor_type;location;lat;lon;timestamp;temperature;humidity
5459;DHT22;2752;49.992;8.422;2022-09-09T13:39:52;21.00;1.00
5459;DHT22;2752;49.992;8.422;2022-09-09T13:42:24;21.30;1.00
5459;DHT22;2752;49.992;8.422;2022-09-09T13:44:52;21.30;1.00
5459;DHT22;2752;49.992;8.422;2022-09-09T13:47:20;21.50;1.00
5459;DHT22;2752;49.992;8.422;2022-09-09T13:49:48;21.30;1.00
5459;DHT22;2752;49.992;8.422;2022-09-09T13:52:17;21.40;1.00
5459;DHT22;2752;49.992;8.422;2022-09-09T13:54:47;20.80;1.00
5459;DHT22;2752;49.992;8.422;2022-09-09T13:57:17;20.90;1.00
5459;DHT22;2752;49.992;8.422;2022-09-09T13:59:44;20.30;1.00
5459;DHT22;2752;49.992;8.422;2022-09-09T14:02:11;20.60;1.00
5459;DHT22;2752;49.992;8.422;2022-09-09T14:04:38;20.70;1.00
5459;DHT22;2752;49.992;8.422;2022-09-09T14:07:09;20.60;1.00
5459;DHT22;2752;49.992;8.422;2022-09-09T14:09:38;20.30;1.00
5459;DHT22;2752;49.992;8.422;2022-09-09T14:12:06;20.40;1.00
5459;DHT22;2752;49.992;8.422;2022-09-09T14:14:35;20.60;1.00
5459;DHT22;2752;49.992;8.422;2022-09-09T14:17:01;20.30;1.00
5459;DHT22;2752;49.992;8.422;2022-09-09T14:19:29;20.40;1.00
5459;DHT22;2752;49.992;8.422;2022-09-09T14:21:56;20.40;1.00
5459;DHT22;2752;49.992;8.422;2022-09-09T14:24:22;20.20;1.00
5459;DHT22;2752;49.992;8.422;2022-09-09T14:26:51;20.40;1.00
5459;DHT22;2752;49.992;8.422;2022-09-09T14:29:18;20.40;1.00
5459;DHT22;2752;49.992;8.422;2022-09-09T14:31:45;20.20;1.00
5459;DHT22;2752;49.992;8.422;2022-09-09T14:34:12;20.20;1.00
5459;DHT22;2752;49.992;8.422;2022-09-09T14:36:39;20.80;1.00
5459;DHT22;2752;49.992;8.422;2022-09-09T14:39:06;20.50;1.00
5459;DHT22;2752;49.992;8.422;2022-09-09T14:41:33;20.30;1.00
5459;DHT22;2752;49.992;8.422;2022-09-09T14:44:01;20.50;1.00
5459;DHT22;2752;49.992;8.422;2022-09-09T14:46:28;20.40;1.00
5459;DHT22;2752;49.992;8.422;2022-09-09T14:48:55;20.60;1.00
5459;DHT22;2752;49.992;8.422;2022-09-09T14:51:24;20.60;1.00
5459;DHT22;2752;49.992;8.422;2022-09-09T14:53:53;20.60;1.00
5459;DHT22;2752;49.992;8.422;2022-09-09T14:56:21;20.60;1.00
5459;DHT22;2752;49.992;8.422;2022-09-09T14:58:49;20.50;1.00
5459;DHT22;2752;49.992;8.422;2022-09-09T15:01:19;20.30;1.00
5459;DHT22;2752;49.992;8.422;2022-09-09T15:03:50;20.30;1.00
5459;DHT22;2752;49.992;8.422;2022-09-09T15:06:17;20.30;1.00
5459;DHT22;2752;49.992;8.422;2022-09-09T15:08:45;20.50;1.00
5459;DHT22;2752;49.992;8.422;2022-09-09T15:11:13;20.50;1.00
5459;DHT22;2752;49.992;8.422;2022-09-09T15:13:42;20.90;1.00
5459;DHT22;2752;49.992;8.422;2022-09-09T15:16:10;20.80;1.00
5459;DHT22;2752;49.992;8.422;2022-09-09T15:18:39;20.70;1.00
5459;DHT22;2752;49.992;8.422;2022-09-09T15:21:08;20.60;1.00
5459;DHT22;2752;49.992;8.422;2022-09-09T15:23:36;20.70;1.00
5459;DHT22;2752;49.992;8.422;2022-09-09T15:26:04;20.90;1.00
5459;DHT22;2752;49.992;8.422;2022-09-09T15:28:32;20.90;1.00
5459;DHT22;2752;49.992;8.422;2022-09-09T15:30:59;20.80;1.00
5459;DHT22;2752;49.992;8.422;2022-09-09T15:33:31;20.80;1.00
5459;DHT22;2752;49.992;8.422;2022-09-09T15:35:59;19.80;1.00
5459;DHT22;2752;49.992;8.422;2022-09-09T15:38:26;21.00;1.00
5459;DHT22;2752;49.992;8.422;2022-09-09T15:40:53;21.00;1.00
5459;DHT22;2752;49.992;8.422;2022-09-09T15:43:21;20.90;1.00
5459;DHT22;2752;49.992;8.422;2022-09-09T15:45:52;21.00;1.00
5459;DHT22;2752;49.992;8.422;2022-09-09T15:48:22;20.80;1.00
5459;DHT22;2752;49.992;8.422;2022-09-09T15:51:01;20.80;1.00
5459;DHT22;2752;49.992;8.422;2022-09-09T15:53:28;20.80;1.00
5459;DHT22;2752;49.992;8.422;2022-09-09T15:55:58;20.60;1.00
5459;DHT22;2752;49.992;8.422;2022-09-09T15:58:24;20.40;1.00
5459;DHT22;2752;49.992;8.422;2022-09-09T16:00:51;20.50;1.00
5459;DHT22;2752;49.992;8.422;2022-09-09T16:03:18;20.30;1.00
5459;DHT22;2752;49.992;8.422;2022-09-09T16:05:44;20.00;1.00
5459;DHT22;2752;49.992;8.422;2022-09-09T16:08:17;19.90;1.00
5459;DHT22;2752;49.992;8.422;2022-09-09T16:10:45;20.10;1.00
5459;DHT22;2752;49.992;8.422;2022-09-09T16:13:12;20.00;1.00
5459;DHT22;2752;49.992;8.422;2022-09-09T16:15:39;19.70;1.00
5459;DHT22;2752;49.992;8.422;2022-09-09T16:18:06;20.10;1.00
5459;DHT22;2752;49.992;8.422;2022-09-09T16:20:32;19.70;1.00
5459;DHT22;2752;49.992;8.422;2022-09-09T16:22:59;19.90;1.00
5459;DHT22;2752;49.992;8.422;2022-09-09T16:25:28;19.70;1.00
5459;DHT22;2752;49.992;8.422;2022-09-09T16:27:55;20.00;1.00
5459;DHT22;2752;49.992;8.422;2022-09-09T16:30:21;19.70;1.00
5459;DHT22;2752;49.992;8.422;2022-09-09T16:32:48;20.00;1.00
5459;DHT22;2752;49.992;8.422;2022-09-09T16:35:14;19.90;1.00
5459;DHT22;2752;49.992;8.422;2022-09-09T16:37:41;19.70;1.00
5459;DHT22;2752;49.992;8.422;2022-09-09T16:40:09;19.80;1.70
5459;DHT22;2752;49.992;8.422;2022-09-09T16:42:37;19.60;1.00
5459;DHT22;2752;49.992;8.422;2022-09-09T16:45:04;19.70;1.00
5459;DHT22;2752;49.992;8.422;2022-09-09T16:47:32;19.70;1.00
5459;DHT22;2752;49.992;8.422;2022-09-09T16:49:59;19.70;1.00
5459;DHT22;2752;49.992;8.422;2022-09-09T16:52:26;19.60;1.00
5459;DHT22;2752;49.992;8.422;2022-09-09T16:54:52;19.80;1.00
5459;DHT22;2752;49.992;8.422;2022-09-09T16:57:19;19.50;1.00
5459;DHT22;2752;49.992;8.422;2022-09-09T16:59:47;19.60;1.00
5459;DHT22;2752;49.992;8.422;2022-09-09T17:02:15;19.80;1.00
5459;DHT22;2752;49.992;8.422;2022-09-09T17:04:42;19.80;1.00
5459;DHT22;2752;49.992;8.422;2022-09-09T17:07:08;19.60;1.00
5459;DHT22;2752;49.992;8.422;2022-09-09T17:09:35;19.50;1.00
5459;DHT22;2752;49.992;8.422;2022-09-09T17:12:02;19.60;1.00
5459;DHT22;2752;49.992;8.422;2022-09-09T17:14:29;19.50;1.00
5459;DHT22;2752;49.992;8.422;2022-09-09T17:16:58;19.50;1.00
5459;DHT22;2752;49.992;8.422;2022-09-09T17:19:26;19.80;1.00
5459;DHT22;2752;49.992;8.422;2022-09-09T17:21:53;19.70;1.00
5459;DHT22;2752;49.992;8.422;2022-09-09T17:24:22;19.30;1.00
5459;DHT22;2752;49.992;8.422;2022-09-09T17:26:51;19.20;1.00
5459;DHT22;2752;49.992;8.422;2022-09-09T17:29:18;19.30;1.00
5459;DHT22;2752;49.992;8.422;2022-09-09T17:31:45;18.80;1.00
5459;DHT22;2752;49.992;8.422;2022-09-09T17:34:13;18.80;1.00
5459;DHT22;2752;49.992;8.422;2022-09-09T17:36:40;18.70;4.10
5459;DHT22;2752;49.992;8.422;2022-09-09T17:39:06;18.50;9.70
5459;DHT22;2752;49.992;8.422;2022-09-09T17:41:35;18.30;13.70
5459;DHT22;2752;49.992;8.422;2022-09-09T17:44:02;18.50;18.10
5459;DHT22;2752;49.992;8.422;2022-09-09T17:46:31;18.80;21.20
5459;DHT22;2752;49.992;8.422;2022-09-09T17:49:01;18.10;26.20
5459;DHT22;2752;49.992;8.422;2022-09-09T17:51:31;18.10;32.10
5459;DHT22;2752;49.992;8.422;2022-09-09T17:53:59;17.90;39.60
5459;DHT22;2752;49.992;8.422;2022-09-09T17:56:28;17.90;45.60
5459;DHT22;2752;49.992;8.422;2022-09-09T17:58:56;18.20;49.00
5459;DHT22;2752;49.992;8.422;2022-09-09T18:01:24;17.30;52.80
5459;DHT22;2752;49.992;8.422;2022-09-09T18:03:52;17.60;56.00
5459;DHT22;2752;49.992;8.422;2022-09-09T18:06:21;17.40;59.70
5459;DHT22;2752;49.992;8.422;2022-09-09T18:08:51;17.60;63.10
5459;DHT22;2752;49.992;8.422;2022-09-09T18:11:19;17.40;65.90
5459;DHT22;2752;49.992;8.422;2022-09-09T18:13:48;17.80;68.20
5459;DHT22;2752;49.992;8.422;2022-09-09T18:16:15;17.10;65.50
5459;DHT22;2752;49.992;8.422;2022-09-09T18:18:42;17.10;67.20
5459;DHT22;2752;49.992;8.422;2022-09-09T18:21:09;17.20;66.10
5459;DHT22;2752;49.992;8.422;2022-09-09T18:23:37;17.50;58.30
5459;DHT22;2752;49.992;8.422;2022-09-09T18:26:10;17.60;57.80
5459;DHT22;2752;49.992;8.422;2022-09-09T18:28:38;17.00;54.20
5459;DHT22;2752;49.992;8.422;2022-09-09T18:31:06;17.20;37.10
5459;DHT22;2752;49.992;8.422;2022-09-09T18:33:34;17.20;35.90
5459;DHT22;2752;49.992;8.422;2022-09-09T18:36:04;17.00;35.20
5459;DHT22;2752;49.992;8.422;2022-09-09T18:38:32;17.10;36.00
5459;DHT22;2752;49.992;8.422;2022-09-09T18:41:00;17.00;34.90
5459;DHT22;2752;49.992;8.422;2022-09-09T18:43:29;16.80;35.50
5459;DHT22;2752;49.992;8.422;2022-09-09T18:45:55;16.70;39.30
5459;DHT22;2752;49.992;8.422;2022-09-09T18:48:28;16.90;35.20
5459;DHT22;2752;49.992;8.422;2022-09-09T18:50:54;16.90;34.80
5459;DHT22;2752;49.992;8.422;2022-09-09T18:53:21;16.60;39.80
5459;DHT22;2752;49.992;8.422;2022-09-09T18:55:57;16.50;41.00
5459;DHT22;2752;49.992;8.422;2022-09-09T18:58:24;16.60;46.90
5459;DHT22;2752;49.992;8.422;2022-09-09T19:00:52;16.50;50.00
5459;DHT22;2752;49.992;8.422;2022-09-09T19:03:19;16.40;49.40
5459;DHT22;2752;49.992;8.422;2022-09-09T19:05:45;16.40;47.80
5459;DHT22;2752;49.992;8.422;2022-09-09T19:08:12;16.50;51.90
5459;DHT22;2752;49.992;8.422;2022-09-09T19:10:39;16.40;52.90
5459;DHT22;2752;49.992;8.422;2022-09-09T19:13:06;16.40;53.30
5459;DHT22;2752;49.992;8.422;2022-09-09T19:15:34;16.30;56.80
5459;DHT22;2752;49.992;8.422;2022-09-09T19:18:03;16.10;60.60
5459;DHT22;2752;49.992;8.422;2022-09-09T19:20:29;16.70;60.10
5459;DHT22;2752;49.992;8.422;2022-09-09T19:22:56;16.30;62.30
5459;DHT22;2752;49.992;8.422;2022-09-09T19:25:24;14.10;63.10
5459;DHT22;2752;49.992;8.422;2022-09-09T19:27:51;16.30;67.30
5459;DHT22;2752;49.992;8.422;2022-09-09T19:30:17;16.70;67.80
5459;DHT22;2752;49.992;8.422;2022-09-09T19:32:44;16.00;64.30
5459;DHT22;2752;49.992;8.422;2022-09-09T19:35:12;15.90;60.60
5459;DHT22;2752;49.992;8.422;2022-09-09T19:37:39;16.10;66.80
5459;DHT22;2752;49.992;8.422;2022-09-09T19:40:07;15.70;70.10
5459;DHT22;2752;49.992;8.422;2022-09-09T19:42:35;15.80;72.70
5459;DHT22;2752;49.992;8.422;2022-09-09T19:45:02;15.70;78.10
5459;DHT22;2752;49.992;8.422;2022-09-09T19:47:31;15.70;78.30
5459;DHT22;2752;49.992;8.422;2022-09-09T19:49:57;15.50;79.80
5459;DHT22;2752;49.992;8.422;2022-09-09T19:52:25;15.60;76.80
5459;DHT22;2752;49.992;8.422;2022-09-09T19:54:52;15.50;80.70
5459;DHT22;2752;49.992;8.422;2022-09-09T19:57:19;15.60;83.00
5459;DHT22;2752;49.992;8.422;2022-09-09T19:59:47;15.60;85.70
5459;DHT22;2752;49.992;8.422;2022-09-09T20:02:14;15.40;86.30
5459;DHT22;2752;49.992;8.422;2022-09-09T20:04:41;15.40;88.60
5459;DHT22;2752;49.992;8.422;2022-09-09T20:07:07;15.30;90.40
5459;DHT22;2752;49.992;8.422;2022-09-09T20:09:35;15.30;92.10
5459;DHT22;2752;49.992;8.422;2022-09-09T20:12:02;15.30;92.50
5459;DHT22;2752;49.992;8.422;2022-09-09T20:14:29;15.50;93.30
5459;DHT22;2752;49.992;8.422;2022-09-09T20:16:55;15.40;88.90
5459;DHT22;2752;49.992;8.422;2022-09-09T20:19:22;15.30;85.90
5459;DHT22;2752;49.992;8.422;2022-09-09T20:21:49;15.30;85.10
5459;DHT22;2752;49.992;8.422;2022-09-09T20:24:18;15.20;86.50
5459;DHT22;2752;49.992;8.422;2022-09-09T20:26:48;15.60;90.00
5459;DHT22;2752;49.992;8.422;2022-09-09T20:29:16;15.30;91.60
5459;DHT22;2752;49.992;8.422;2022-09-09T20:31:43;15.30;90.80
5459;DHT22;2752;49.992;8.422;2022-09-09T20:34:12;15.20;92.20
5459;DHT22;2752;49.992;8.422;2022-09-09T20:36:39;15.90;89.60
5459;DHT22;2752;49.992;8.422;2022-09-09T20:39:08;15.20;91.40
5459;DHT22;2752;49.992;8.422;2022-09-09T20:41:37;15.20;92.00
5459;DHT22;2752;49.992;8.422;2022-09-09T20:44:06;15.20;90.70
5459;DHT22;2752;49.992;8.422;2022-09-09T20:46:35;15.10;91.90
5459;DHT22;2752;49.992;8.422;2022-09-09T20:49:03;15.30;89.20
5459;DHT22;2752;49.992;8.422;2022-09-09T20:51:32;15.20;87.40
5459;DHT22;2752;49.992;8.422;2022-09-09T20:54:00;15.40;99.90
5459;DHT22;2752;49.992;8.422;2022-09-09T20:56:29;15.10;89.00
5459;DHT22;2752;49.992;8.422;2022-09-09T20:58:58;15.00;89.00
5459;DHT22;2752;49.992;8.422;2022-09-09T21:01:26;14.90;89.90
5459;DHT22;2752;49.992;8.422;2022-09-09T21:03:53;14.80;90.60
5459;DHT22;2752;49.992;8.422;2022-09-09T21:06:19;14.80;92.10
5459;DHT22;2752;49.992;8.422;2022-09-09T21:08:47;14.70;94.10
5459;DHT22;2752;49.992;8.422;2022-09-09T21:11:14;14.90;95.20
5459;DHT22;2752;49.992;8.422;2022-09-09T21:13:42;14.70;95.40
5459;DHT22;2752;49.992;8.422;2022-09-09T21:16:12;14.60;96.30
5459;DHT22;2752;49.992;8.422;2022-09-09T21:18:40;14.60;97.60
5459;DHT22;2752;49.992;8.422;2022-09-09T21:21:08;14.60;98.50
5459;DHT22;2752;49.992;8.422;2022-09-09T21:23:35;14.80;98.80
5459;DHT22;2752;49.992;8.422;2022-09-09T21:26:02;14.80;98.50
5459;DHT22;2752;49.992;8.422;2022-09-09T21:28:30;14.50;99.20
5459;DHT22;2752;49.992;8.422;2022-09-09T21:30:57;14.40;99.90
5459;DHT22;2752;49.992;8.422;2022-09-09T21:33:26;14.40;99.90
5459;DHT22;2752;49.992;8.422;2022-09-09T21:36:03;14.50;95.80
5459;DHT22;2752;49.992;8.422;2022-09-09T21:38:30;14.50;99.90
5459;DHT22;2752;49.992;8.422;2022-09-09T21:41:01;14.40;99.90
5459;DHT22;2752;49.992;8.422;2022-09-09T21:43:28;14.30;99.80
5459;DHT22;2752;49.992;8.422;2022-09-09T21:45:55;14.30;99.20
5459;DHT22;2752;49.992;8.422;2022-09-09T21:48:22;12.80;98.80
5459;DHT22;2752;49.992;8.422;2022-09-09T21:50:51;14.20;99.90
5459;DHT22;2752;49.992;8.422;2022-09-09T21:53:19;13.70;99.90
5459;DHT22;2752;49.992;8.422;2022-09-09T21:55:47;14.10;99.10
5459;DHT22;2752;49.992;8.422;2022-09-09T21:58:15;14.10;98.60
5459;DHT22;2752;49.992;8.422;2022-09-09T22:00:43;14.20;98.90
5459;DHT22;2752;49.992;8.422;2022-09-09T22:03:11;14.20;96.10
5459;DHT22;2752;49.992;8.422;2022-09-09T22:05:39;14.10;94.80
5459;DHT22;2752;49.992;8.422;2022-09-09T22:08:06;13.90;95.40
5459;DHT22;2752;49.992;8.422;2022-09-09T22:10:36;14.10;97.60
5459;DHT22;2752;49.992;8.422;2022-09-09T22:13:03;14.20;99.90
5459;DHT22;2752;49.992;8.422;2022-09-09T22:15:30;14.10;99.90
5459;DHT22;2752;49.992;8.422;2022-09-09T22:17:58;14.00;99.90
5459;DHT22;2752;49.992;8.422;2022-09-09T22:20:27;14.10;99.90
5459;DHT22;2752;49.992;8.422;2022-09-09T22:22:54;14.00;99.90
5459;DHT22;2752;49.992;8.422;2022-09-09T22:25:21;14.10;99.90
5459;DHT22;2752;49.992;8.422;2022-09-09T22:27:49;14.00;99.90
5459;DHT22;2752;49.992;8.422;2022-09-09T22:30:15;14.00;99.90
5459;DHT22;2752;49.992;8.422;2022-09-09T22:32:43;14.10;99.90
5459;DHT22;2752;49.992;8.422;2022-09-09T22:35:10;14.00;99.90
5459;DHT22;2752;49.992;8.422;2022-09-09T22:37:37;14.10;99.90
5459;DHT22;2752;49.992;8.422;2022-09-09T22:40:04;14.10;99.90
5459;DHT22;2752;49.992;8.422;2022-09-09T22:42:33;14.30;99.90
5459;DHT22;2752;49.992;8.422;2022-09-09T22:45:01;14.10;99.90
5459;DHT22;2752;49.992;8.422;2022-09-09T22:47:28;14.30;99.90
5459;DHT22;2752;49.992;8.422;2022-09-09T22:49:54;14.10;99.90
5459;DHT22;2752;49.992;8.422;2022-09-09T22:52:21;14.20;99.90
5459;DHT22;2752;49.992;8.422;2022-09-09T22:54:48;14.10;99.90
5459;DHT22;2752;49.992;8.422;2022-09-09T22:57:16;14.10;99.90
5459;DHT22;2752;49.992;8.422;2022-09-09T22:59:43;14.10;99.90
5459;DHT22;2752;49.992;8.422;2022-09-09T23:02:10;14.10;99.90
5459;DHT22;2752;49.992;8.422;2022-09-09T23:04:39;14.00;99.90
5459;DHT22;2752;49.992;8.422;2022-09-09T23:07:05;14.20;99.90
5459;DHT22;2752;49.992;8.422;2022-09-09T23:09:33;14.20;99.90
5459;DHT22;2752;49.992;8.422;2022-09-09T23:12:00;14.10;99.90
5459;DHT22;2752;49.992;8.422;2022-09-09T23:14:27;14.50;99.90
5459;DHT22;2752;49.992;8.422;2022-09-09T23:16:56;14.40;99.90
5459;DHT22;2752;49.992;8.422;2022-09-09T23:19:24;15.90;99.90
5459;DHT22;2752;49.992;8.422;2022-09-09T23:21:53;14.40;99.90
5459;DHT22;2752;49.992;8.422;2022-09-09T23:24:19;14.40;99.90
5459;DHT22;2752;49.992;8.422;2022-09-09T23:26:46;14.30;99.90
5459;DHT22;2752;49.992;8.422;2022-09-09T23:29:13;14.30;99.90
5459;DHT22;2752;49.992;8.422;2022-09-09T23:31:41;14.30;99.90
5459;DHT22;2752;49.992;8.422;2022-09-09T23:34:09;14.10;99.90
5459;DHT22;2752;49.992;8.422;2022-09-09T23:36:39;14.30;99.90
5459;DHT22;2752;49.992;8.422;2022-09-09T23:39:07;14.30;99.90
5459;DHT22;2752;49.992;8.422;2022-09-09T23:41:35;14.20;99.90
5459;DHT22;2752;49.992;8.422;2022-09-09T23:44:03;14.30;99.90
5459;DHT22;2752;49.992;8.422;2022-09-09T23:46:31;14.20;99.90
5459;DHT22;2752;49.992;8.422;2022-09-09T23:48:58;14.20;99.90
5459;DHT22;2752;49.992;8.422;2022-09-09T23:51:26;14.60;99.90
5459;DHT22;2752;49.992;8.422;2022-09-09T23:53:57;14.50;99.90
5459;DHT22;2752;49.992;8.422;2022-09-09T23:58:53;14.40;99.10
